createdAt,value
2022-07-26T00:01:48.224Z,23.70
2022-07-26T00:04:15.292Z,23.70
2022-07-26T00:06:42.589Z,23.60
2022-07-26T00:09:10.284Z,23.70
2022-07-26T00:11:37.698Z,23.60
2022-07-26T00:14:07.314Z,23.50
2022-07-26T00:16:39.364Z,23.50
2022-07-26T00:19:10.384Z,23.50
2022-07-26T00:21:40.735Z,23.40
2022-07-26T00:24:09.265Z,23.40
2022-07-26T00:26:36.660Z,23.40
2022-07-26T00:29:04.963Z,23.30
2022-07-26T00:31:32.629Z,23.20
2022-07-26T00:34:01.126Z,23.10
2022-07-26T00:36:29.014Z,23.10
2022-07-26T00:38:55.982Z,23.10
2022-07-26T00:41:23.170Z,23.10
2022-07-26T00:43:56.710Z,23.00
2022-07-26T00:46:24.126Z,23.00
2022-07-26T00:48:51.449Z,23.00
2022-07-26T00:51:21.023Z,23.10
2022-07-26T00:53:48.745Z,23.10
2022-07-26T00:56:17.173Z,23.10
2022-07-26T00:58:44.623Z,23.00
2022-07-26T01:01:12.223Z,22.80
2022-07-26T01:03:40.033Z,22.60
2022-07-26T01:06:07.635Z,22.60
2022-07-26T01:08:35.997Z,22.50
2022-07-26T01:11:03.162Z,22.60
2022-07-26T01:13:34.771Z,22.70
2022-07-26T01:16:03.312Z,22.70
2022-07-26T01:18:30.691Z,22.80
2022-07-26T01:21:00.571Z,22.70
2022-07-26T01:23:29.178Z,22.70
2022-07-26T01:25:59.202Z,22.80
2022-07-26T01:28:26.463Z,22.70
2022-07-26T01:30:53.595Z,22.80
2022-07-26T01:33:20.985Z,22.80
2022-07-26T01:35:48.086Z,22.80
2022-07-26T01:38:15.175Z,22.70
2022-07-26T01:40:43.473Z,22.70
2022-07-26T01:43:10.591Z,22.60
2022-07-26T01:45:37.614Z,22.60
2022-07-26T01:48:06.036Z,22.60
2022-07-26T01:50:33.062Z,22.60
2022-07-26T01:53:00.221Z,22.60
2022-07-26T01:55:27.255Z,22.50
2022-07-26T01:57:55.756Z,22.40
2022-07-26T02:00:22.912Z,22.40
2022-07-26T02:02:50.185Z,22.30
2022-07-26T02:05:17.262Z,22.30
2022-07-26T02:07:44.863Z,22.30
2022-07-26T02:10:13.394Z,22.30
2022-07-26T02:12:42.227Z,22.30
2022-07-26T02:15:13.052Z,22.40
2022-07-26T02:17:40.388Z,22.30
2022-07-26T02:20:09.495Z,22.40
2022-07-26T02:22:36.707Z,22.30
2022-07-26T02:25:05.713Z,22.40
2022-07-26T02:27:33.374Z,22.40
2022-07-26T02:30:00.438Z,22.30
2022-07-26T02:32:28.890Z,22.30
2022-07-26T02:34:55.844Z,22.30
2022-07-26T02:37:22.932Z,22.30
2022-07-26T02:39:49.851Z,22.30
2022-07-26T02:42:16.873Z,22.30
2022-07-26T02:44:43.967Z,22.30
2022-07-26T02:47:12.648Z,22.30
2022-07-26T02:49:44.017Z,22.20
2022-07-26T02:52:12.114Z,22.10
2022-07-26T02:54:39.360Z,22.10
2022-07-26T02:57:06.448Z,22.00
2022-07-26T02:59:33.576Z,22.00
2022-07-26T03:02:00.988Z,22.00
2022-07-26T03:04:28.218Z,22.00
2022-07-26T03:06:56.583Z,21.90
2022-07-26T03:09:23.608Z,21.90
2022-07-26T03:11:50.603Z,21.70
2022-07-26T03:14:17.557Z,21.70
2022-07-26T03:16:44.488Z,21.70
2022-07-26T03:19:11.481Z,21.70
2022-07-26T03:21:38.477Z,21.70
2022-07-26T03:24:07.802Z,21.60
2022-07-26T03:26:34.919Z,21.50
2022-07-26T03:29:01.887Z,21.50
2022-07-26T03:31:29.139Z,21.40
2022-07-26T03:34:01.280Z,21.20
2022-07-26T03:36:30.188Z,20.90
2022-07-26T03:38:57.363Z,21.10
2022-07-26T03:41:25.769Z,21.20
2022-07-26T03:43:52.722Z,21.20
2022-07-26T03:46:19.684Z,21.20
2022-07-26T03:48:46.715Z,21.20
2022-07-26T03:51:13.686Z,21.30
2022-07-26T03:53:40.873Z,21.30
2022-07-26T03:56:26.529Z,21.10
2022-07-26T03:58:55.298Z,20.80
2022-07-26T04:01:22.505Z,20.40
2022-07-26T04:03:49.959Z,20.40
2022-07-26T04:06:17.631Z,20.60
2022-07-26T04:08:45.186Z,20.70
2022-07-26T04:11:12.462Z,20.60
2022-07-26T04:13:39.664Z,20.40
2022-07-26T04:16:08.849Z,20.30
2022-07-26T04:18:36.278Z,20.50
2022-07-26T04:21:03.999Z,20.70
2022-07-26T04:23:31.158Z,20.90
2022-07-26T04:25:58.204Z,20.80
2022-07-26T04:28:29.750Z,20.90
2022-07-26T04:30:57.692Z,21.00
2022-07-26T04:33:27.110Z,21.10
2022-07-26T04:35:54.333Z,21.20
2022-07-26T04:38:21.704Z,21.20
2022-07-26T04:40:50.106Z,21.20
2022-07-26T04:43:17.238Z,21.30
2022-07-26T04:45:45.337Z,21.30
2022-07-26T04:48:12.682Z,21.30
2022-07-26T04:50:41.198Z,21.30
2022-07-26T04:53:10.708Z,21.20
2022-07-26T04:55:37.715Z,21.20
2022-07-26T04:58:05.058Z,21.20
2022-07-26T05:00:32.509Z,21.20
2022-07-26T05:03:01.788Z,21.30
2022-07-26T05:05:32.199Z,21.20
2022-07-26T05:08:03.435Z,21.20
2022-07-26T05:10:35.231Z,21.20
2022-07-26T05:13:04.014Z,21.30
2022-07-26T05:15:34.971Z,21.40
2022-07-26T05:18:07.100Z,21.30
2022-07-26T05:20:36.305Z,21.30
2022-07-26T05:23:05.467Z,21.40
2022-07-26T05:25:32.620Z,21.40
2022-07-26T05:27:59.913Z,21.50
2022-07-26T05:30:27.474Z,21.40
2022-07-26T05:32:54.813Z,21.50
2022-07-26T05:35:22.775Z,21.60
2022-07-26T05:37:50.050Z,21.70
2022-07-26T05:40:18.464Z,21.70
2022-07-26T05:42:45.419Z,21.60
2022-07-26T05:45:12.665Z,21.60
2022-07-26T05:47:39.835Z,21.60
2022-07-26T05:50:08.880Z,21.50
2022-07-26T05:52:36.075Z,21.50
2022-07-26T05:55:03.074Z,21.50
2022-07-26T05:57:31.386Z,21.50
2022-07-26T05:59:58.417Z,21.50
2022-07-26T06:02:25.829Z,21.50
2022-07-26T06:04:55.334Z,21.50
2022-07-26T06:07:22.494Z,21.60
2022-07-26T06:09:49.528Z,21.50
2022-07-26T06:12:16.731Z,21.50
2022-07-26T06:14:45.128Z,21.50
2022-07-26T06:17:12.160Z,21.60
2022-07-26T06:19:41.068Z,21.60
2022-07-26T06:22:10.067Z,21.70
2022-07-26T06:24:37.059Z,21.70
2022-07-26T06:27:05.538Z,21.80
2022-07-26T06:29:33.244Z,21.80
2022-07-26T06:32:01.987Z,21.80
2022-07-26T06:34:29.151Z,21.80
2022-07-26T06:36:56.201Z,21.90
2022-07-26T06:39:23.752Z,22.00
2022-07-26T06:41:50.761Z,22.00
2022-07-26T06:44:17.734Z,22.00
2022-07-26T06:46:56.091Z,22.00
2022-07-26T06:49:24.508Z,22.10
2022-07-26T06:51:51.593Z,22.10
2022-07-26T06:54:18.718Z,22.20
2022-07-26T06:56:45.705Z,22.40
2022-07-26T06:59:15.700Z,22.50
2022-07-26T07:01:51.631Z,22.60
2022-07-26T07:04:27.227Z,22.70
2022-07-26T07:06:54.307Z,22.90
2022-07-26T07:09:23.042Z,23.00
2022-07-26T07:11:53.699Z,23.20
2022-07-26T07:14:29.194Z,23.30
2022-07-26T07:16:58.746Z,23.60
2022-07-26T07:19:27.205Z,24.00
2022-07-26T07:21:54.214Z,24.70
2022-07-26T07:24:21.553Z,25.10
2022-07-26T07:26:49.392Z,26.10
2022-07-26T07:29:21.030Z,26.80
2022-07-26T07:31:49.729Z,27.40
2022-07-26T07:34:19.429Z,27.20
2022-07-26T07:36:48.202Z,26.70
2022-07-26T07:39:17.528Z,26.20
2022-07-26T07:41:45.459Z,25.60
2022-07-26T07:44:12.840Z,25.30
2022-07-26T07:46:40.114Z,24.90
2022-07-26T07:49:07.710Z,24.60
2022-07-26T07:51:36.334Z,24.50
2022-07-26T07:54:08.295Z,24.40
2022-07-26T07:56:35.439Z,24.40
2022-07-26T07:59:08.889Z,24.40
2022-07-26T08:01:39.377Z,24.40
2022-07-26T08:04:07.059Z,24.30
2022-07-26T08:06:34.203Z,24.30
2022-07-26T08:09:01.368Z,24.20
2022-07-26T08:11:33.767Z,24.30
2022-07-26T08:14:01.555Z,24.30
2022-07-26T08:16:28.836Z,24.50
2022-07-26T08:18:58.055Z,24.70
2022-07-26T08:21:28.229Z,24.70
2022-07-26T08:23:56.519Z,24.70
2022-07-26T08:26:23.721Z,24.70
2022-07-26T08:28:58.278Z,24.70
2022-07-26T08:31:26.617Z,25.10
2022-07-26T08:33:53.831Z,25.50
2022-07-26T08:36:20.969Z,25.60
2022-07-26T08:38:48.789Z,25.50
2022-07-26T08:41:18.935Z,25.40
2022-07-26T08:43:52.055Z,25.20
2022-07-26T08:46:26.414Z,25.00
2022-07-26T08:48:54.860Z,24.90
2022-07-26T08:51:23.995Z,24.80
2022-07-26T08:53:52.422Z,24.80
2022-07-26T08:56:19.566Z,24.70
2022-07-26T08:58:46.728Z,24.70
2022-07-26T09:01:14.433Z,24.70
2022-07-26T09:03:44.452Z,24.60
2022-07-26T09:06:14.470Z,24.60
2022-07-26T09:08:42.377Z,24.80
2022-07-26T09:11:28.323Z,24.80
2022-07-26T09:13:58.662Z,24.70
2022-07-26T09:16:26.877Z,24.70
2022-07-26T09:18:57.283Z,24.50
2022-07-26T09:21:29.557Z,24.40
2022-07-26T09:23:56.802Z,24.50
2022-07-26T09:26:25.990Z,24.50
2022-07-26T09:29:13.344Z,24.50
2022-07-26T09:31:40.892Z,24.70
2022-07-26T09:34:09.709Z,24.80
2022-07-26T09:36:51.478Z,25.00
2022-07-26T09:39:27.783Z,25.10
2022-07-26T09:42:26.646Z,25.00
2022-07-26T09:44:56.205Z,25.00
2022-07-26T09:47:23.840Z,24.90
2022-07-26T09:50:11.834Z,24.80
2022-07-26T09:52:39.058Z,24.80
2022-07-26T09:55:09.321Z,24.90
2022-07-26T09:57:36.651Z,24.90
2022-07-26T10:00:05.812Z,25.00
2022-07-26T10:02:35.048Z,25.10
2022-07-26T10:05:03.682Z,25.20
2022-07-26T10:07:31.056Z,25.20
2022-07-26T10:10:04.494Z,25.20
2022-07-26T10:12:34.108Z,25.10
2022-07-26T10:15:01.709Z,24.90
2022-07-26T10:17:50.484Z,24.80
2022-07-26T10:20:51.617Z,24.70
2022-07-26T10:23:43.118Z,24.70
2022-07-26T10:26:14.587Z,24.70
2022-07-26T10:28:42.349Z,24.70
2022-07-26T10:31:30.030Z,24.90
2022-07-26T10:33:59.749Z,24.90
2022-07-26T10:36:33.918Z,24.90
2022-07-26T10:39:15.660Z,24.90
2022-07-26T10:41:48.419Z,24.90
2022-07-26T10:44:22.071Z,24.90
2022-07-26T10:47:18.673Z,24.90
2022-07-26T10:49:58.196Z,25.00
2022-07-26T10:52:29.426Z,25.20
2022-07-26T10:55:15.810Z,25.40
2022-07-26T10:57:46.435Z,25.50
2022-07-26T11:00:21.236Z,25.50
2022-07-26T11:02:55.936Z,25.40
2022-07-26T11:05:28.825Z,25.40
2022-07-26T11:08:08.834Z,25.30
2022-07-26T11:10:39.050Z,25.30
2022-07-26T11:13:13.269Z,25.30
2022-07-26T11:15:44.509Z,25.40
2022-07-26T11:18:16.863Z,25.40
2022-07-26T11:20:46.817Z,25.40
2022-07-26T11:23:28.143Z,25.20
2022-07-26T11:26:14.648Z,25.10
2022-07-26T11:28:57.671Z,25.00
2022-07-26T11:31:50.520Z,24.90
2022-07-26T11:34:27.667Z,24.90
2022-07-26T11:36:59.251Z,24.90
2022-07-26T11:39:33.830Z,24.90
2022-07-26T11:42:03.996Z,24.90
2022-07-26T11:44:32.069Z,24.90
2022-07-26T11:47:00.071Z,24.90
2022-07-26T11:52:25.330Z,25.00
2022-07-26T11:54:54.708Z,25.10
2022-07-26T11:57:22.107Z,25.20
2022-07-26T11:59:51.151Z,25.30
2022-07-26T12:02:21.543Z,25.40
2022-07-26T12:04:48.804Z,25.40
2022-07-26T12:07:18.334Z,25.40
2022-07-26T12:09:49.531Z,25.40
2022-07-26T12:12:27.437Z,25.30
2022-07-26T12:15:00.486Z,25.20
2022-07-26T12:17:35.066Z,25.20
2022-07-26T12:20:14.129Z,25.10
2022-07-26T12:22:54.998Z,25.10
2022-07-26T12:25:31.310Z,25.20
2022-07-26T12:27:59.767Z,25.20
2022-07-26T12:30:35.671Z,25.20
2022-07-26T12:33:02.952Z,25.20
2022-07-26T12:35:33.583Z,25.10
2022-07-26T12:38:01.435Z,25.10
2022-07-26T12:40:40.537Z,25.20
2022-07-26T12:43:09.632Z,25.20
2022-07-26T12:45:38.047Z,25.20
2022-07-26T12:48:10.966Z,25.20
2022-07-26T12:50:38.182Z,25.20
2022-07-26T12:53:08.578Z,25.20
2022-07-26T12:55:38.627Z,25.20
2022-07-26T12:58:05.670Z,25.10
2022-07-26T13:00:40.474Z,25.10
2022-07-26T13:03:07.489Z,25.10
2022-07-26T13:05:34.692Z,25.10
2022-07-26T13:08:01.701Z,25.20
2022-07-26T13:10:34.068Z,25.30
2022-07-26T13:13:02.309Z,25.40
2022-07-26T13:15:36.494Z,25.40
2022-07-26T13:18:18.398Z,25.30
2022-07-26T13:20:50.516Z,25.30
2022-07-26T13:23:21.873Z,25.20
2022-07-26T13:25:49.732Z,25.30
2022-07-26T13:28:17.183Z,25.20
2022-07-26T13:30:47.571Z,25.30
2022-07-26T13:33:18.347Z,25.40
2022-07-26T13:35:51.275Z,25.40
2022-07-26T13:38:20.105Z,25.40
2022-07-26T13:40:47.160Z,25.40
2022-07-26T13:43:14.920Z,25.40
2022-07-26T13:45:42.225Z,25.50
2022-07-26T13:48:09.496Z,25.50
2022-07-26T13:50:41.651Z,25.50
2022-07-26T13:53:09.474Z,25.60
2022-07-26T13:55:45.736Z,25.60
2022-07-26T13:58:13.566Z,25.70
2022-07-26T14:00:47.357Z,25.80
2022-07-26T14:03:21.864Z,25.80
2022-07-26T14:05:50.656Z,25.80
2022-07-26T14:08:17.630Z,25.80
2022-07-26T14:10:45.633Z,25.80
2022-07-26T14:13:20.854Z,25.80
2022-07-26T14:15:48.807Z,25.80
2022-07-26T14:18:16.023Z,25.90
2022-07-26T14:20:50.516Z,26.00
2022-07-26T14:23:19.768Z,26.00
2022-07-26T14:25:50.143Z,25.90
2022-07-26T14:28:19.947Z,25.90
2022-07-26T14:30:47.602Z,25.80
2022-07-26T14:33:15.181Z,25.80
2022-07-26T14:35:47.314Z,25.70
2022-07-26T14:38:29.577Z,25.70
2022-07-26T14:40:58.003Z,25.70
2022-07-26T14:43:26.789Z,25.70
2022-07-26T14:45:57.022Z,25.80
2022-07-26T14:48:51.937Z,25.80
2022-07-26T14:51:14.476Z,25.90
2022-07-26T14:53:46.198Z,26.00
2022-07-26T14:56:13.408Z,26.00
2022-07-26T14:58:43.731Z,26.00
2022-07-26T15:01:11.251Z,26.00
2022-07-26T15:03:38.465Z,26.00
2022-07-26T15:06:05.594Z,25.80
2022-07-26T15:08:32.707Z,25.80
2022-07-26T15:11:01.232Z,25.80
2022-07-26T15:13:28.304Z,25.70
2022-07-26T15:15:56.219Z,25.70
2022-07-26T15:18:23.550Z,25.70
2022-07-26T15:20:51.274Z,25.70
2022-07-26T15:23:18.462Z,25.70
2022-07-26T15:25:48.411Z,25.70
2022-07-26T15:28:17.243Z,25.60
2022-07-26T15:30:50.295Z,25.60
2022-07-26T15:33:20.149Z,25.60
2022-07-26T15:35:49.815Z,25.60
2022-07-26T15:38:16.920Z,25.60
2022-07-26T15:40:46.827Z,25.50
2022-07-26T15:43:44.384Z,25.60
2022-07-26T15:46:11.154Z,25.60
2022-07-26T15:48:41.018Z,25.60
2022-07-26T15:51:08.089Z,25.60
2022-07-26T15:53:35.547Z,25.60
2022-07-26T15:56:05.832Z,25.70
2022-07-26T15:58:34.295Z,25.70
2022-07-26T16:01:02.325Z,25.70
2022-07-26T16:03:29.519Z,25.70
2022-07-26T16:05:56.951Z,25.70
2022-07-26T16:08:24.346Z,25.70
2022-07-26T16:10:51.544Z,25.60
2022-07-26T16:13:18.709Z,25.60
2022-07-26T16:15:55.281Z,25.60
2022-07-26T16:18:22.395Z,25.50
2022-07-26T16:20:49.467Z,25.50
2022-07-26T16:23:16.577Z,25.40
2022-07-26T16:25:43.639Z,25.40
2022-07-26T16:28:10.955Z,25.40
2022-07-26T16:30:38.075Z,25.40
2022-07-26T16:33:07.014Z,25.40
2022-07-26T16:35:34.347Z,25.40
2022-07-26T16:38:01.374Z,25.50
2022-07-26T16:40:28.424Z,25.50
2022-07-26T16:42:55.734Z,25.40
2022-07-26T16:45:22.876Z,25.40
2022-07-26T16:47:50.219Z,25.40
2022-07-26T16:50:27.304Z,25.30
2022-07-26T16:52:55.318Z,25.30
2022-07-26T16:55:25.745Z,25.30
2022-07-26T16:57:52.885Z,25.30
2022-07-26T17:00:22.913Z,25.30
2022-07-26T17:02:50.824Z,25.40
2022-07-26T17:05:19.244Z,25.30
2022-07-26T17:07:46.415Z,25.30
2022-07-26T17:10:13.665Z,25.30
2022-07-26T17:12:43.175Z,25.30
2022-07-26T17:15:11.595Z,25.20
2022-07-26T17:17:38.847Z,25.10
2022-07-26T17:20:08.166Z,25.10
2022-07-26T17:22:36.619Z,25.00
2022-07-26T17:25:05.644Z,24.90
2022-07-26T17:27:32.742Z,24.90
2022-07-26T17:30:06.854Z,24.80
2022-07-26T17:32:35.173Z,24.70
2022-07-26T17:35:02.595Z,24.70
2022-07-26T17:37:30.193Z,24.70
2022-07-26T17:40:00.688Z,24.60
2022-07-26T17:42:28.614Z,24.60
2022-07-26T17:44:55.964Z,24.60
2022-07-26T17:47:28.309Z,24.60
2022-07-26T17:50:13.903Z,24.50
2022-07-26T17:52:48.154Z,24.50
2022-07-26T17:55:18.746Z,24.40
2022-07-26T17:57:47.553Z,24.40
2022-07-26T18:00:16.832Z,24.30
2022-07-26T18:02:45.907Z,24.30
2022-07-26T18:05:13.198Z,24.30
2022-07-26T18:07:41.113Z,24.20
2022-07-26T18:10:11.218Z,24.30
2022-07-26T18:12:39.631Z,24.30
2022-07-26T18:15:08.831Z,24.20
2022-07-26T18:17:36.290Z,24.20
2022-07-26T18:20:05.443Z,24.20
2022-07-26T18:22:32.707Z,24.10
2022-07-26T18:24:59.767Z,24.10
2022-07-26T18:27:29.809Z,24.10
2022-07-26T18:29:58.652Z,24.10
2022-07-26T18:32:26.963Z,24.10
2022-07-26T18:34:54.066Z,24.10
2022-07-26T18:37:21.401Z,24.10
2022-07-26T18:39:51.564Z,24.10
2022-07-26T18:42:21.249Z,24.10
2022-07-26T18:44:48.314Z,24.00
2022-07-26T18:47:22.849Z,24.00
2022-07-26T18:49:50.250Z,24.00
2022-07-26T18:52:32.167Z,24.00
2022-07-26T18:55:06.902Z,24.00
2022-07-26T18:57:34.319Z,24.00
2022-07-26T19:00:01.415Z,24.00
2022-07-26T19:02:29.867Z,23.90
2022-07-26T19:04:59.778Z,23.90
2022-07-26T19:07:26.886Z,23.90
2022-07-26T19:09:58.340Z,23.80
2022-07-26T19:12:31.166Z,23.80
2022-07-26T19:14:59.949Z,23.80
2022-07-26T19:17:32.830Z,23.80
2022-07-26T19:20:01.956Z,23.70
2022-07-26T19:22:30.413Z,23.70
2022-07-26T19:24:57.888Z,23.70
2022-07-26T19:27:25.130Z,23.70
2022-07-26T19:29:52.542Z,23.70
2022-07-26T19:32:19.619Z,23.60
2022-07-26T19:34:48.269Z,23.60
2022-07-26T19:37:21.261Z,23.60
2022-07-26T19:40:00.394Z,23.50
2022-07-26T19:42:31.552Z,23.40
2022-07-26T19:45:00.510Z,23.40
2022-07-26T19:47:29.654Z,23.40
2022-07-26T19:49:58.801Z,23.30
2022-07-26T19:52:40.996Z,23.30
2022-07-26T19:55:09.577Z,23.30
2022-07-26T19:57:36.876Z,23.20
2022-07-26T20:00:06.073Z,23.20
2022-07-26T20:02:33.276Z,23.10
2022-07-26T20:05:01.822Z,23.10
2022-07-26T20:07:28.945Z,23.10
2022-07-26T20:09:58.708Z,23.00
2022-07-26T20:12:25.936Z,23.00
2022-07-26T20:14:53.077Z,22.90
2022-07-26T20:17:20.380Z,22.90
2022-07-26T20:19:49.416Z,22.90
2022-07-26T20:22:17.768Z,22.80
2022-07-26T20:24:45.112Z,22.80
2022-07-26T20:27:12.288Z,22.80
2022-07-26T20:29:39.316Z,22.80
2022-07-26T20:32:09.058Z,22.70
2022-07-26T20:34:36.064Z,22.70
2022-07-26T20:37:03.199Z,22.70
2022-07-26T20:39:31.743Z,22.70
2022-07-26T20:41:58.791Z,22.60
2022-07-26T20:44:28.790Z,22.60
2022-07-26T20:46:55.826Z,22.50
2022-07-26T20:49:23.062Z,22.50
2022-07-26T20:51:56.253Z,22.50
2022-07-26T20:54:23.312Z,22.50
2022-07-26T20:56:51.713Z,22.40
2022-07-26T20:59:18.743Z,22.40
2022-07-26T21:01:45.917Z,22.40
2022-07-26T21:04:13.110Z,22.50
2022-07-26T21:06:40.141Z,22.40
2022-07-26T21:09:08.897Z,22.40
2022-07-26T21:11:38.489Z,22.40
2022-07-26T21:14:06.988Z,22.30
2022-07-26T21:16:34.571Z,22.30
2022-07-26T21:19:02.106Z,22.30
2022-07-26T21:21:29.149Z,22.30
2022-07-26T21:23:56.185Z,22.30
2022-07-26T21:26:23.203Z,22.30
2022-07-26T21:28:53.207Z,22.30
2022-07-26T21:31:21.684Z,22.30
2022-07-26T21:33:48.818Z,22.30
2022-07-26T21:36:16.271Z,22.30
2022-07-26T21:38:43.393Z,22.20
2022-07-26T21:41:13.612Z,22.20
2022-07-26T21:43:41.022Z,22.20
2022-07-26T21:46:12.764Z,22.10
2022-07-26T21:48:41.999Z,22.10
2022-07-26T21:51:09.035Z,22.10
2022-07-26T21:53:36.072Z,22.10
2022-07-26T21:56:05.635Z,22.20
2022-07-26T21:58:36.347Z,22.10
2022-07-26T22:01:06.558Z,22.10
2022-07-26T22:03:36.629Z,22.00
2022-07-26T22:06:06.740Z,21.90
2022-07-26T22:08:34.276Z,22.00
2022-07-26T22:11:01.524Z,22.00
2022-07-26T22:13:28.568Z,22.10
2022-07-26T22:15:55.572Z,22.00
2022-07-26T22:18:22.713Z,22.00
2022-07-26T22:20:49.994Z,22.00
2022-07-26T22:23:19.440Z,21.90
2022-07-26T22:25:46.564Z,22.00
2022-07-26T22:28:17.899Z,22.00
2022-07-26T22:30:46.260Z,22.00
2022-07-26T22:33:13.513Z,21.90
2022-07-26T22:35:40.695Z,21.90
2022-07-26T22:38:10.156Z,21.90
2022-07-26T22:40:40.677Z,21.90
2022-07-26T22:43:08.965Z,21.90
2022-07-26T22:45:37.221Z,21.90
2022-07-26T22:48:06.552Z,21.90
2022-07-26T22:50:34.081Z,21.80
2022-07-26T22:53:01.739Z,21.80
2022-07-26T22:55:31.488Z,21.80
2022-07-26T22:58:00.349Z,21.70
2022-07-26T23:00:27.836Z,21.70
2022-07-26T23:02:55.107Z,21.70
2022-07-26T23:05:22.101Z,21.70
2022-07-26T23:08:03.771Z,21.70
2022-07-26T23:10:31.621Z,21.70
2022-07-26T23:13:00.014Z,21.70
2022-07-26T23:15:27.226Z,21.80
2022-07-26T23:17:54.286Z,21.80
2022-07-26T23:20:21.253Z,21.70
2022-07-26T23:22:48.324Z,21.60
2022-07-26T23:25:17.664Z,21.50
2022-07-26T23:27:45.623Z,21.60
2022-07-26T23:30:14.267Z,21.60
2022-07-26T23:32:41.410Z,21.60
2022-07-26T23:35:08.941Z,21.60
2022-07-26T23:37:36.052Z,21.60
2022-07-26T23:40:04.011Z,21.50
2022-07-26T23:42:31.162Z,21.60
2022-07-26T23:44:58.312Z,21.50
2022-07-26T23:47:26.957Z,21.60
2022-07-26T23:49:54.011Z,21.60
2022-07-26T23:52:21.145Z,21.50
2022-07-26T23:54:48.276Z,21.50
2022-07-26T23:57:15.261Z,21.40
2022-07-26T23:59:42.268Z,21.40
